createdAt,value
2023-03-21T00:01:54.855Z,2.15
2023-03-21T00:04:23.004Z,2.05
2023-03-21T00:06:51.299Z,2.30
2023-03-21T00:09:18.899Z,4.68
2023-03-21T00:11:46.524Z,2.72
2023-03-21T00:14:21.062Z,2.88
2023-03-21T00:16:52.499Z,2.22
2023-03-21T00:19:26.955Z,2.17
2023-03-21T00:22:07.878Z,1.77
2023-03-21T00:24:39.974Z,1.98
2023-03-21T00:27:38.322Z,2.45
2023-03-21T00:29:55.350Z,2.17
2023-03-21T00:32:23.234Z,2.83
2023-03-21T00:35:40.759Z,1.77
2023-03-21T00:37:38.709Z,1.80
2023-03-21T00:40:26.782Z,2.03
2023-03-21T00:42:56.637Z,2.45
2023-03-21T00:45:24.724Z,3.75
2023-03-21T00:47:52.235Z,2.45
2023-03-21T00:50:19.871Z,2.08
2023-03-21T00:52:47.333Z,2.30
2023-03-21T00:55:15.955Z,1.80
2023-03-21T00:57:47.572Z,2.40
2023-03-21T01:00:18.991Z,2.28
2023-03-21T01:03:04.359Z,1.88
2023-03-21T01:05:57.062Z,2.17
2023-03-21T01:08:31.032Z,1.90
2023-03-21T01:11:06.488Z,2.33
2023-03-21T01:13:36.370Z,2.28
2023-03-21T01:16:05.898Z,2.55
2023-03-21T01:18:33.967Z,1.90
2023-03-21T01:21:02.015Z,2.50
2023-03-21T01:23:30.776Z,2.80
2023-03-21T01:25:58.327Z,2.15
2023-03-21T01:28:29.630Z,1.83
2023-03-21T01:30:57.227Z,3.63
2023-03-21T01:33:24.940Z,2.05
2023-03-21T01:36:00.325Z,2.70
2023-03-21T01:38:31.324Z,3.05
2023-03-21T01:41:00.590Z,2.58
2023-03-21T01:43:35.258Z,2.13
2023-03-21T01:46:05.507Z,2.53
2023-03-21T01:48:33.811Z,2.05
2023-03-21T01:51:02.298Z,2.50
2023-03-21T01:53:31.640Z,4.20
2023-03-21T01:56:02.875Z,2.97
2023-03-21T01:58:31.193Z,2.40
2023-03-21T02:00:58.766Z,2.65
2023-03-21T02:03:36.022Z,2.53
2023-03-21T02:06:07.348Z,2.97
2023-03-21T02:08:39.464Z,3.42
2023-03-21T02:11:10.069Z,3.20
2023-03-21T02:13:41.236Z,2.53
2023-03-21T02:16:32.615Z,2.08
2023-03-21T02:19:04.194Z,2.20
2023-03-21T02:21:51.485Z,4.03
2023-03-21T02:24:28.352Z,3.05
2023-03-21T02:27:03.982Z,3.13
2023-03-21T02:29:50.166Z,3.97
2023-03-21T02:32:38.144Z,2.30
2023-03-21T02:35:16.954Z,3.10
2023-03-21T02:38:00.500Z,3.42
2023-03-21T02:40:43.705Z,2.42
2023-03-21T02:43:23.453Z,2.55
2023-03-21T02:45:54.643Z,2.53
2023-03-21T02:48:49.855Z,2.92
2023-03-21T02:51:19.203Z,3.20
2023-03-21T02:53:53.267Z,2.22
2023-03-21T02:56:23.846Z,2.55
2023-03-21T02:58:51.785Z,4.18
2023-03-21T03:01:19.289Z,2.40
2023-03-21T03:03:48.214Z,3.83
2023-03-21T03:06:20.584Z,3.45
2023-03-21T03:09:06.697Z,2.88
2023-03-21T03:11:36.537Z,3.50
2023-03-21T03:14:42.009Z,3.00
2023-03-21T03:17:10.689Z,2.80
2023-03-21T03:19:50.602Z,2.60
2023-03-21T03:22:24.147Z,2.15
2023-03-21T03:25:01.039Z,2.80
2023-03-21T03:27:33.425Z,2.42
2023-03-21T03:30:02.962Z,2.05
2023-03-21T03:32:38.667Z,2.75
2023-03-21T03:35:07.603Z,3.00
2023-03-21T03:37:37.565Z,3.22
2023-03-21T03:40:09.326Z,3.05
2023-03-21T03:42:38.300Z,2.05
2023-03-21T03:45:09.673Z,2.80
2023-03-21T03:47:50.810Z,3.08
2023-03-21T03:50:29.142Z,2.88
2023-03-21T03:53:04.800Z,2.53
2023-03-21T03:55:35.362Z,2.42
2023-03-21T03:58:04.658Z,3.20
2023-03-21T04:00:34.461Z,2.92
2023-03-21T04:03:02.108Z,2.60
2023-03-21T04:05:29.756Z,3.30
2023-03-21T04:07:57.743Z,2.83
2023-03-21T04:10:25.615Z,3.03
2023-03-21T04:12:53.886Z,2.70
2023-03-21T04:15:21.614Z,3.00
2023-03-21T04:17:49.123Z,2.75
2023-03-21T04:20:30.037Z,4.03
2023-03-21T04:23:03.557Z,3.45
2023-03-21T04:25:34.193Z,2.75
2023-03-21T04:28:02.077Z,3.42
2023-03-21T04:30:29.648Z,3.25
2023-03-21T04:33:01.803Z,3.58
2023-03-21T04:35:29.332Z,3.30
2023-03-21T04:37:57.246Z,3.65
2023-03-21T04:40:26.240Z,2.95
2023-03-21T04:42:53.798Z,3.83
2023-03-21T04:45:21.338Z,2.97
2023-03-21T04:47:48.908Z,2.60
2023-03-21T04:50:17.389Z,2.78
2023-03-21T04:52:44.865Z,2.90
2023-03-21T04:55:12.481Z,3.28
2023-03-21T04:57:40.876Z,3.00
2023-03-21T05:00:14.664Z,3.00
2023-03-21T05:02:42.265Z,3.28
2023-03-21T05:05:11.994Z,2.60
2023-03-21T05:07:40.075Z,3.13
2023-03-21T05:10:08.148Z,3.53
2023-03-21T05:12:35.660Z,3.75
2023-03-21T05:15:03.285Z,4.28
2023-03-21T05:17:31.322Z,3.78
2023-03-21T05:19:59.362Z,2.67
2023-03-21T05:22:29.566Z,2.33
2023-03-21T05:24:57.452Z,2.17
2023-03-21T05:27:37.113Z,2.28
2023-03-21T05:30:06.757Z,2.88
2023-03-21T05:32:34.228Z,2.17
2023-03-21T05:35:02.201Z,2.05
2023-03-21T05:37:29.693Z,1.80
2023-03-21T05:39:57.138Z,2.42
2023-03-21T05:42:24.900Z,1.98
2023-03-21T05:44:52.403Z,1.98
2023-03-21T05:47:20.178Z,2.58
2023-03-21T05:49:47.962Z,2.47
2023-03-21T05:52:15.429Z,2.97
2023-03-21T05:54:42.974Z,2.85
2023-03-21T05:57:10.551Z,2.55
2023-03-21T05:59:40.738Z,2.35
2023-03-21T06:02:08.310Z,2.38
2023-03-21T06:04:35.921Z,4.47
2023-03-21T06:07:03.458Z,2.85
2023-03-21T06:09:34.618Z,3.00
2023-03-21T06:12:02.270Z,4.25
2023-03-21T06:14:29.750Z,3.00
2023-03-21T06:16:57.314Z,2.45
2023-03-21T06:19:24.838Z,2.67
2023-03-21T06:21:52.529Z,2.95
2023-03-21T06:24:20.071Z,2.15
2023-03-21T06:26:48.998Z,2.05
2023-03-21T06:29:16.614Z,1.92
2023-03-21T06:31:44.198Z,1.73
2023-03-21T06:34:12.467Z,2.05
2023-03-21T06:36:40.019Z,2.60
2023-03-21T06:39:08.941Z,2.53
2023-03-21T06:41:39.758Z,2.97
2023-03-21T06:44:10.154Z,2.72
2023-03-21T06:46:37.742Z,2.88
2023-03-21T06:49:05.263Z,2.25
2023-03-21T06:51:32.824Z,2.20
2023-03-21T06:54:01.054Z,2.50
2023-03-21T06:56:28.904Z,3.65
2023-03-21T06:58:56.397Z,2.35
2023-03-21T07:01:23.908Z,3.13
2023-03-21T07:03:51.410Z,4.80
2023-03-21T07:06:18.886Z,2.50
2023-03-21T07:08:48.696Z,2.40
2023-03-21T07:11:16.177Z,2.17
2023-03-21T07:13:43.707Z,3.58
2023-03-21T07:16:13.412Z,2.70
2023-03-21T07:18:40.922Z,2.55
2023-03-21T07:21:09.082Z,2.33
2023-03-21T07:23:36.652Z,6.07
2023-03-21T07:26:04.212Z,3.15
2023-03-21T07:28:34.488Z,2.67
2023-03-21T07:31:03.324Z,2.53
2023-03-21T07:33:31.789Z,4.78
2023-03-21T07:35:59.401Z,2.65
2023-03-21T07:38:28.036Z,2.40
2023-03-21T07:40:55.555Z,2.90
2023-03-21T07:43:23.069Z,2.60
2023-03-21T07:45:50.668Z,3.05
2023-03-21T07:48:19.031Z,3.55
2023-03-21T07:50:47.216Z,2.22
2023-03-21T07:53:14.694Z,3.25
2023-03-21T07:55:42.551Z,3.08
2023-03-21T07:58:10.046Z,2.15
2023-03-21T08:00:37.536Z,2.72
2023-03-21T08:03:05.159Z,2.70
2023-03-21T08:05:36.272Z,3.30
2023-03-21T08:08:04.787Z,3.47
2023-03-21T08:10:32.526Z,2.60
2023-03-21T08:13:02.753Z,2.80
2023-03-21T08:15:30.548Z,3.08
2023-03-21T08:18:02.784Z,3.85
2023-03-21T08:20:30.405Z,1.75
2023-03-21T08:22:58.113Z,2.40
2023-03-21T08:25:26.129Z,2.63
2023-03-21T08:27:53.732Z,2.75
2023-03-21T08:30:22.967Z,2.40
2023-03-21T08:32:50.548Z,17.23
2023-03-21T08:35:19.341Z,3.28
2023-03-21T08:37:47.542Z,3.08
2023-03-21T08:40:17.235Z,5.30
2023-03-21T08:42:45.237Z,2.67
2023-03-21T08:45:13.908Z,4.97
2023-03-21T08:47:41.573Z,3.30
2023-03-21T08:50:12.190Z,3.10
2023-03-21T08:52:40.108Z,2.72
2023-03-21T08:55:07.864Z,4.65
2023-03-21T08:57:35.524Z,3.33
2023-03-21T09:00:07.853Z,2.72
2023-03-21T09:02:35.751Z,3.20
2023-03-21T09:05:03.425Z,3.05
2023-03-21T09:07:34.713Z,3.40
2023-03-21T09:10:19.681Z,3.63
2023-03-21T09:12:51.976Z,2.88
2023-03-21T09:15:22.462Z,3.10
2023-03-21T09:17:53.392Z,4.45
2023-03-21T09:20:26.811Z,5.22
2023-03-21T09:22:54.904Z,3.10
2023-03-21T09:25:22.547Z,3.50
2023-03-21T09:27:50.629Z,2.97
2023-03-21T09:30:20.820Z,3.97
2023-03-21T09:32:50.139Z,2.95
2023-03-21T09:35:19.646Z,4.47
2023-03-21T09:37:50.705Z,3.00
2023-03-21T09:40:24.225Z,4.13
2023-03-21T09:43:02.797Z,3.05
2023-03-21T09:45:36.769Z,2.60
2023-03-21T09:48:08.272Z,3.45
2023-03-21T09:50:37.701Z,3.35
2023-03-21T09:53:17.233Z,3.42
2023-03-21T09:55:45.203Z,3.58
2023-03-21T09:58:27.777Z,4.50
2023-03-21T10:01:00.517Z,3.70
2023-03-21T10:03:31.035Z,3.85
2023-03-21T10:06:02.177Z,3.58
2023-03-21T10:08:34.816Z,4.63
2023-03-21T10:11:07.323Z,3.72
2023-03-21T10:13:38.952Z,4.50
2023-03-21T10:16:20.700Z,3.58
2023-03-21T10:18:49.088Z,4.57
2023-03-21T10:21:51.728Z,4.55
2023-03-21T10:24:18.728Z,3.38
2023-03-21T10:26:47.261Z,5.38
2023-03-21T10:29:17.219Z,4.75
2023-03-21T10:31:46.305Z,3.17
2023-03-21T10:34:18.386Z,3.90
2023-03-21T10:36:46.478Z,3.65
2023-03-21T10:39:37.125Z,4.07
2023-03-21T10:42:05.181Z,4.47
2023-03-21T10:44:34.487Z,3.60
2023-03-21T10:47:09.347Z,3.90
2023-03-21T10:49:56.455Z,3.83
2023-03-21T10:52:27.995Z,4.03
2023-03-21T10:55:07.281Z,3.17
2023-03-21T10:57:37.969Z,4.93
2023-03-21T11:00:17.672Z,4.55
2023-03-21T11:02:51.448Z,4.50
2023-03-21T11:05:34.287Z,3.90
2023-03-21T11:08:04.275Z,3.30
2023-03-21T11:10:36.469Z,11.13
2023-03-21T11:13:08.422Z,5.03
2023-03-21T11:15:42.574Z,3.67
2023-03-21T11:18:23.528Z,8.75
2023-03-21T11:20:55.412Z,4.95
2023-03-21T11:23:26.675Z,3.78
2023-03-21T11:25:54.302Z,3.50
2023-03-21T11:28:23.393Z,3.90
2023-03-21T11:30:55.721Z,5.00
2023-03-21T11:33:32.808Z,4.82
2023-03-21T11:36:00.295Z,6.28
2023-03-21T11:38:31.197Z,4.75
2023-03-21T11:41:02.875Z,5.38
2023-03-21T11:43:32.609Z,4.22
2023-03-21T11:46:10.359Z,4.82
2023-03-21T11:48:41.273Z,6.32
2023-03-21T11:51:17.921Z,5.88
2023-03-21T11:53:48.134Z,4.13
2023-03-21T11:56:38.046Z,3.83
2023-03-21T11:59:08.846Z,4.13
2023-03-21T12:01:43.807Z,5.50
2023-03-21T12:04:29.785Z,4.43
2023-03-21T12:07:01.372Z,5.93
2023-03-21T12:09:50.686Z,5.80
2023-03-21T12:12:37.933Z,4.05
2023-03-21T12:15:15.646Z,4.47
2023-03-21T12:17:45.752Z,5.18
2023-03-21T12:20:18.136Z,4.78
2023-03-21T12:22:52.187Z,5.93
2023-03-21T12:25:28.388Z,3.80
2023-03-21T12:28:31.932Z,7.30
2023-03-21T12:31:15.576Z,5.40
2023-03-21T12:34:03.256Z,6.13
2023-03-21T12:36:30.696Z,7.30
2023-03-21T12:39:03.366Z,7.88
2023-03-21T12:41:35.990Z,4.25
2023-03-21T12:44:23.009Z,4.60
2023-03-21T12:46:59.227Z,6.55
2023-03-21T12:49:32.884Z,5.57
2023-03-21T12:52:05.577Z,5.28
2023-03-21T12:54:38.728Z,4.97
2023-03-21T12:57:06.307Z,6.80
2023-03-21T12:59:48.372Z,7.35
2023-03-21T13:02:39.035Z,5.25
2023-03-21T13:05:15.173Z,6.43
2023-03-21T13:07:44.202Z,6.65
2023-03-21T13:10:16.564Z,4.32
2023-03-21T13:12:44.345Z,5.75
2023-03-21T13:15:30.695Z,7.15
2023-03-21T13:18:07.359Z,5.97
2023-03-21T13:20:50.454Z,5.55
2023-03-21T13:23:19.574Z,4.97
2023-03-21T13:25:48.255Z,5.57
2023-03-21T13:28:23.322Z,5.00
2023-03-21T13:30:51.626Z,8.38
2023-03-21T13:33:25.359Z,6.82
2023-03-21T13:36:08.545Z,8.85
2023-03-21T13:38:40.612Z,5.40
2023-03-21T13:41:09.819Z,4.03
2023-03-21T13:43:40.065Z,4.93
2023-03-21T13:46:09.671Z,5.97
2023-03-21T13:48:56.266Z,5.10
2023-03-21T13:51:37.754Z,8.40
2023-03-21T13:54:05.292Z,5.75
2023-03-21T13:56:52.952Z,5.60
2023-03-21T13:59:37.376Z,8.63
2023-03-21T14:02:18.974Z,9.27
2023-03-21T14:05:04.035Z,6.93
2023-03-21T14:07:37.262Z,12.77
2023-03-21T14:10:06.893Z,5.30
2023-03-21T14:12:38.756Z,9.35
2023-03-21T14:15:15.837Z,5.85
2023-03-21T14:17:50.411Z,5.93
2023-03-21T14:20:22.804Z,8.13
2023-03-21T14:22:53.540Z,6.07
2023-03-21T14:25:27.244Z,5.85
2023-03-21T14:27:58.744Z,7.40
2023-03-21T14:30:26.394Z,5.00
2023-03-21T14:33:00.786Z,5.43
2023-03-21T14:35:34.821Z,5.80
2023-03-21T14:38:04.643Z,5.28
2023-03-21T14:40:32.175Z,6.63
2023-03-21T14:43:04.729Z,6.38
2023-03-21T14:45:34.822Z,7.20
2023-03-21T14:48:06.590Z,7.15
2023-03-21T14:50:53.312Z,6.55
2023-03-21T14:53:26.036Z,5.90
2023-03-21T14:55:58.436Z,6.78
2023-03-21T14:58:27.360Z,7.13
2023-03-21T15:00:56.973Z,5.85
2023-03-21T15:03:26.876Z,7.13
2023-03-21T15:05:58.028Z,5.90
2023-03-21T15:08:26.986Z,5.90
2023-03-21T15:11:07.720Z,6.57
2023-03-21T15:13:37.938Z,6.18
2023-03-21T15:16:05.965Z,4.90
2023-03-21T15:18:35.117Z,5.75
2023-03-21T15:21:09.686Z,6.57
2023-03-21T15:23:51.238Z,6.25
2023-03-21T15:26:20.575Z,5.47
2023-03-21T15:28:49.548Z,6.97
2023-03-21T15:31:19.341Z,7.85
2023-03-21T15:33:50.256Z,7.35
2023-03-21T15:36:27.853Z,5.53
2023-03-21T15:38:56.457Z,5.93
2023-03-21T15:41:23.904Z,6.82
2023-03-21T15:44:18.364Z,5.10
2023-03-21T15:46:50.249Z,6.72
2023-03-21T15:49:17.745Z,7.35
2023-03-21T15:51:47.977Z,5.63
2023-03-21T15:54:18.310Z,7.05
2023-03-21T15:56:52.649Z,5.97
2023-03-21T15:59:20.354Z,4.82
2023-03-21T16:01:48.666Z,6.20
2023-03-21T16:04:19.003Z,6.30
2023-03-21T16:07:00.340Z,6.00
2023-03-21T16:09:28.069Z,7.20
2023-03-21T16:11:57.096Z,7.05
2023-03-21T16:14:28.077Z,5.22
2023-03-21T16:16:56.565Z,8.98
2023-03-21T16:19:28.393Z,6.97
2023-03-21T16:21:55.873Z,5.72
2023-03-21T16:24:23.319Z,5.22
2023-03-21T16:26:54.115Z,5.82
2023-03-21T16:29:21.682Z,5.20
2023-03-21T16:31:50.068Z,5.15
2023-03-21T16:34:17.659Z,6.07
2023-03-21T16:36:45.444Z,5.32
2023-03-21T16:39:18.699Z,7.30
2023-03-21T16:41:46.534Z,5.22
2023-03-21T16:44:16.962Z,6.22
2023-03-21T16:46:44.837Z,6.50
2023-03-21T16:49:24.424Z,7.13
2023-03-21T16:51:52.270Z,6.38
2023-03-21T16:54:19.738Z,6.90
2023-03-21T16:56:52.158Z,6.43
2023-03-21T16:59:20.169Z,5.47
2023-03-21T17:01:48.851Z,5.70
2023-03-21T17:04:17.804Z,6.70
2023-03-21T17:06:49.909Z,5.32
2023-03-21T17:09:18.482Z,8.40
2023-03-21T17:11:46.096Z,6.07
2023-03-21T17:14:14.940Z,5.35
2023-03-21T17:16:43.972Z,5.70
2023-03-21T17:19:22.669Z,6.60
2023-03-21T17:21:50.471Z,6.22
2023-03-21T17:24:18.045Z,6.03
2023-03-21T17:26:45.488Z,8.13
2023-03-21T17:29:19.033Z,5.50
2023-03-21T17:31:48.876Z,6.93
2023-03-21T17:34:16.484Z,7.05
2023-03-21T17:36:45.019Z,6.80
2023-03-21T17:39:30.573Z,6.75
2023-03-21T17:41:58.168Z,6.68
2023-03-21T17:44:25.662Z,6.40
2023-03-21T17:46:53.202Z,6.30
2023-03-21T17:49:21.782Z,5.60
2023-03-21T17:51:49.460Z,7.22
2023-03-21T17:54:16.870Z,6.95
2023-03-21T17:56:44.700Z,5.32
2023-03-21T17:59:13.803Z,5.82
2023-03-21T18:01:42.913Z,6.88
2023-03-21T18:04:18.244Z,6.75
2023-03-21T18:06:45.761Z,7.63
2023-03-21T18:09:13.325Z,8.25
2023-03-21T18:11:40.928Z,8.48
2023-03-21T18:14:18.214Z,6.45
2023-03-21T18:16:47.005Z,8.38
2023-03-21T18:19:14.594Z,7.28
2023-03-21T18:21:45.832Z,8.63
2023-03-21T18:24:17.178Z,7.75
2023-03-21T18:26:50.731Z,6.10
2023-03-21T18:32:08.759Z,7.30
2023-03-21T18:34:37.761Z,7.47
2023-03-21T18:37:07.625Z,7.38
2023-03-21T18:39:35.681Z,6.32
2023-03-21T18:42:04.554Z,7.57
2023-03-21T18:44:38.539Z,6.00
2023-03-21T18:47:07.501Z,7.03
2023-03-21T18:52:24.084Z,8.15
2023-03-21T18:54:51.567Z,6.55
2023-03-21T18:57:35.576Z,8.40
2023-03-21T19:00:11.138Z,6.90
2023-03-21T19:02:43.357Z,7.03
2023-03-21T19:05:13.493Z,7.72
2023-03-21T19:07:41.330Z,7.70
2023-03-21T19:10:18.304Z,6.85
2023-03-21T19:12:47.495Z,7.68
2023-03-21T19:15:18.403Z,7.05
2023-03-21T19:18:28.646Z,7.47
2023-03-21T19:20:35.483Z,7.28
2023-03-21T19:23:03.909Z,6.28
2023-03-21T19:25:31.575Z,7.68
2023-03-21T19:27:59.042Z,5.90
2023-03-21T19:30:27.800Z,6.07
2023-03-21T19:32:56.328Z,7.40
2023-03-21T19:35:23.860Z,5.65
2023-03-21T19:37:51.486Z,5.18
2023-03-21T19:40:20.484Z,5.10
2023-03-21T19:42:50.378Z,5.53
2023-03-21T19:45:18.546Z,5.88
2023-03-21T19:47:46.789Z,5.80
2023-03-21T19:53:02.004Z,5.80
2023-03-21T19:55:29.673Z,5.40
2023-03-21T19:57:57.226Z,6.05
2023-03-21T20:00:25.081Z,5.05
2023-03-21T20:02:52.866Z,6.22
2023-03-21T20:05:26.057Z,6.60
2023-03-21T20:07:56.100Z,6.30
2023-03-21T20:10:26.480Z,6.95
2023-03-21T20:12:56.955Z,6.53
2023-03-21T20:15:26.837Z,4.45
2023-03-21T20:17:56.389Z,5.85
2023-03-21T20:20:24.134Z,6.28
2023-03-21T20:23:11.281Z,6.55
2023-03-21T20:25:42.931Z,4.95
2023-03-21T20:28:16.188Z,6.28
2023-03-21T20:30:48.635Z,5.70
2023-03-21T20:33:16.484Z,6.75
2023-03-21T20:38:38.428Z,6.90
2023-03-21T20:41:06.871Z,6.72
2023-03-21T20:46:23.336Z,5.32
2023-03-21T20:48:53.537Z,6.38
2023-03-21T20:54:10.576Z,7.30
2023-03-21T20:56:38.183Z,6.90
2023-03-21T20:59:16.719Z,6.82
2023-03-21T21:01:51.278Z,5.60
2023-03-21T21:04:21.404Z,7.60
2023-03-21T21:06:49.151Z,7.32
2023-03-21T21:09:17.370Z,6.72
2023-03-21T21:14:33.149Z,7.95
2023-03-21T21:17:07.669Z,7.40
2023-03-21T21:19:44.991Z,8.85
2023-03-21T21:22:12.619Z,6.55
2023-03-21T21:24:40.189Z,7.10
2023-03-21T21:27:09.055Z,6.05
2023-03-21T21:29:38.807Z,6.30
2023-03-21T21:32:06.461Z,7.93
2023-03-21T21:34:33.991Z,7.00
2023-03-21T21:37:02.896Z,7.72
2023-03-21T21:39:35.507Z,7.10
2023-03-21T21:42:04.005Z,6.15
2023-03-21T21:44:31.934Z,7.53
2023-03-21T21:46:59.562Z,7.15
2023-03-21T21:49:28.916Z,7.03
2023-03-21T21:51:56.969Z,6.22
2023-03-21T21:54:24.461Z,7.57
2023-03-21T21:56:56.911Z,7.95
2023-03-21T21:59:25.199Z,5.80
2023-03-21T22:01:55.744Z,5.57
2023-03-21T22:04:28.343Z,6.68
2023-03-21T22:06:56.130Z,5.47
2023-03-21T22:09:23.908Z,6.68
2023-03-21T22:11:57.228Z,6.30
2023-03-21T22:14:25.404Z,6.10
2023-03-21T22:16:52.956Z,6.47
2023-03-21T22:19:20.638Z,5.82
2023-03-21T22:21:48.237Z,6.03
2023-03-21T22:24:16.439Z,6.40
2023-03-21T22:26:44.238Z,6.40
2023-03-21T22:29:11.780Z,6.53
2023-03-21T22:31:42.412Z,6.85
2023-03-21T22:34:09.995Z,6.75
2023-03-21T22:36:37.721Z,7.55
2023-03-21T22:39:06.427Z,5.43
2023-03-21T22:41:34.775Z,6.82
2023-03-21T22:44:02.919Z,7.45
2023-03-21T22:46:33.333Z,6.60
2023-03-21T22:49:02.025Z,5.85
2023-03-21T22:51:29.708Z,6.90
2023-03-21T22:53:57.215Z,6.35
2023-03-21T22:56:24.897Z,6.05
2023-03-21T22:58:52.429Z,5.53
2023-03-21T23:01:20.071Z,5.95
2023-03-21T23:03:47.729Z,4.78
2023-03-21T23:06:15.738Z,5.35
2023-03-21T23:08:43.815Z,5.00
2023-03-21T23:11:12.477Z,6.05
2023-03-21T23:13:42.159Z,6.03
2023-03-21T23:16:09.896Z,7.75
2023-03-21T23:18:38.155Z,4.30
2023-03-21T23:21:07.042Z,5.03
2023-03-21T23:23:37.573Z,4.22
2023-03-21T23:26:05.200Z,5.43
2023-03-21T23:28:32.942Z,4.40
2023-03-21T23:31:00.592Z,5.55
2023-03-21T23:33:28.570Z,5.47
2023-03-21T23:35:56.392Z,4.97
2023-03-21T23:38:23.959Z,5.90
2023-03-21T23:40:51.694Z,5.32
2023-03-21T23:43:19.251Z,4.57
2023-03-21T23:45:47.389Z,4.97
2023-03-21T23:48:15.155Z,5.00
2023-03-21T23:50:42.737Z,5.00
2023-03-21T23:53:10.432Z,4.63
2023-03-21T23:55:39.662Z,4.72
2023-03-21T23:58:09.765Z,4.55
